Flight Track Log - Related Links

Times and Time Zones

All times are in EDT time to prevent confusion due to time zone crossing. See the N490QS flight status page for this flight to view local times or setup timezone preferences in your user account.

Time Position Orientation Groundspeed Altitude Reporting Facility
EDT Latitude Longitude Course Direction KTS MPH feet Rate Location/Type
Sun 10:36:32 AM 18.3167 -64.9500 205° Southwest 170 196 1,900  Level San Juan Center
Sun 10:37:32 AM 18.2833 -64.9667 205° Southwest 190 219 3,900 2,700 Climbing San Juan Center
Sun 10:38:32 AM 18.2667 -65.0500 258° West 300 345 7,300 3,074 Climbing San Juan Center
Sun 10:39:33 AM 18.2667 -65.1333 270° West 320 368 10,100 2,479 Climbing San Juan Center
Sun 10:40:33 AM 18.2833 -65.2333 280° West 360 414 12,300 2,250 Climbing San Juan Center
Sun 10:41:33 AM 18.3167 -65.3500 287° West 380 437 14,600 2,231 Climbing San Juan Center
Sun 10:42:34 AM 18.3333 -65.4500 280° West 370 426 16,800 2,083 Climbing San Juan Center
Sun 10:43:34 AM 18.3500 -65.5667 279° West 400 460 18,800 2,000 Climbing San Juan Center
Sun 10:44:34 AM 18.3833 -65.7000 285° West 410 472 20,800 1,983 Climbing San Juan Center
Sun 10:45:35 AM 18.4333 -65.8000 298° West 420 483 22,800 1,736 Climbing San Juan Center
Sun 10:46:35 AM 18.5000 -65.9000 305° West 440 506 24,300 1,550 Climbing San Juan Center
Sun 10:47:35 AM 18.5833 -66.0167 307° West 460 529 25,900 1,600 Climbing San Juan Center
Sun 10:48:35 AM 18.6667 -66.1167 311° West 450 518 27,500 1,388 Climbing San Juan Center
Sun 10:49:36 AM 18.7500 -66.2167 311° West 460 529 28,700 1,537 Climbing San Juan Center
Sun 10:50:36 AM 18.8333 -66.3167 311° West 470 541 30,600 1,750 Climbing San Juan Center
Sun 10:51:36 AM 18.9167 -66.4333 307° West 460 529 32,200 1,636 Climbing San Juan Center
Sun 10:52:37 AM 19.0000 -66.5333 311° West 460 529 33,900 2,132 Climbing San Juan Center
Sun 10:53:37 AM 19.0833 -66.6333 311° West 450 518 36,500 2,100 Climbing San Juan Center
Sun 10:54:37 AM 19.1667 -66.7333 311° West 440 506 38,100 1,587 Climbing San Juan Center
Sun 10:55:38 AM 19.2500 -66.8333 311° West 440 506 39,700 1,537 Climbing San Juan Center
Sun 10:56:38 AM 19.3167 -66.9333 305° West 430 495 41,200 1,400 Climbing San Juan Center
Sun 10:57:38 AM 19.3833 -67.0333 305° West 410 472 42,500 900 Climbing San Juan Center
Sun 10:58:38 AM 19.4667 -67.1333 311° West 440 506 43,000 248 Climbing San Juan Center
Sun 10:59:39 AM 19.5500 -67.2333 311° West 440 506 43,000  Level San Juan Center
Sun 11:01:39 AM 19.7000 -67.4167 311° West 430 495 43,000  Level San Juan Center
Sun 11:02:40 AM 19.7667 -67.5167 305° West 430 495 43,000  Level San Juan Center
Sun 11:03:40 AM 19.8500 -67.6167 312° West 440 506 43,000  Level San Juan Center
Sun 11:04:40 AM 19.9333 -67.7167 312° West 440 506 43,000  Level San Juan Center
Sun 11:05:41 AM 20.0000 -67.8333 301° West 440 506 43,000  Level San Juan Center
Sun 11:06:40 AM 20.0833 -67.9333 312° West 440 506 43,000  Level San Juan Center
Sun 11:07:41 AM 20.1667 -68.0333 312° West 450 518 43,000  Level San Juan Center
Sun 11:09:05 AM 20.2661 -68.1861 305° West 578 665 43,000  Level Miami Center
Sun 11:10:05 AM 20.3444 -68.2872 310° West 505 581 43,000  Level Miami Center
Sun 11:11:05 AM 20.4208 -68.3883 309° West 469 540 43,000  Level Miami Center
Sun 11:12:05 AM 20.5031 -68.4850 312° West 449 517 43,000  Level Miami Center
Sun 11:13:05 AM 20.5792 -68.5842 309° West 449 517 43,000  Level Miami Center
Sun 11:14:05 AM 20.6575 -68.6856 310° West 449 517 43,000  Level Miami Center
Sun 11:15:05 AM 20.7356 -68.7850 310° West 444 511 43,000  Level Miami Center
Sun 11:16:05 AM 20.8156 -68.8844 311° West 444 511 43,000  Level Miami Center
Sun 11:17:05 AM 20.8894 -68.9842 308° West 438 504 43,000  Level Miami Center
Sun 11:18:05 AM 20.9675 -69.0861 309° West 438 504 43,000  Level Miami Center
Sun 11:19:05 AM 21.0475 -69.1881 310° West 444 511 43,000  Level Miami Center
Sun 11:20:05 AM 21.1256 -69.2900 309° West 449 517 43,000  Level Miami Center
Sun 11:21:05 AM 21.2056 -69.3922 310° West 449 517 43,000  Level Miami Center
Sun 11:22:05 AM 21.2853 -69.4922 311° West 449 517 43,000  Level Miami Center
Sun 11:23:05 AM 21.3653 -69.5969 309° West 449 517 43,000  Level Miami Center
Sun 11:24:05 AM 21.4408 -69.6975 309° West 449 517 43,000  Level Miami Center
Sun 11:25:05 AM 21.5164 -69.7981 309° West 444 511 43,000  Level Miami Center
Sun 11:26:05 AM 21.6031 -69.9117 309° West 444 511 43,000  Level Miami Center
Sun 11:27:05 AM 21.6717 -70.0017 309° West 444 511 43,000  Level Miami Center
Sun 11:28:05 AM 21.7492 -70.1028 310° West 444 511 43,000  Level Miami Center
Sun 11:29:05 AM 21.8286 -70.2036 310° West 444 511 43,000  Level Miami Center
Sun 11:30:05 AM 21.9042 -70.3094 308° West 444 511 43,000  Level Miami Center
Sun 11:31:05 AM 21.9856 -70.4125 310° West 444 511 43,000  Level Miami Center
Sun 11:32:05 AM 22.0608 -70.5164 308° West 449 517 43,000  Level Miami Center
Sun 11:33:05 AM 22.1403 -70.6200 310° West 449 517 43,000  Level Miami Center
Sun 11:34:05 AM 22.2175 -70.7217 309° West 444 511 43,000  Level Miami Center
Sun 11:35:05 AM 22.2947 -70.8256 309° West 444 511 43,000  Level Miami Center
Sun 11:36:05 AM 22.3758 -70.9272 311° West 451 519 43,000  Level Miami Center
Sun 11:37:05 AM 22.4531 -71.0361 308° West 451 519 43,000  Level Miami Center
Sun 11:38:05 AM 22.5344 -71.1425 310° West 451 519 43,000  Level Miami Center
Sun 11:39:05 AM 22.6114 -71.2469 309° West 451 519 43,000  Level Miami Center
Sun 11:40:05 AM 22.6925 -71.3536 310° West 456 525 43,000  Level Miami Center
Sun 11:41:05 AM 22.7692 -71.4583 308° West 456 525 43,000  Level Miami Center
Sun 11:42:05 AM 22.8481 -71.5631 309° West 456 525 43,000  Level Miami Center
Sun 11:43:05 AM 22.9269 -71.6703 309° West 456 525 43,000  Level Miami Center
Sun 11:44:05 AM 23.0036 -71.7756 308° West 456 525 43,000  Level Miami Center
Sun 11:45:05 AM 23.0842 -71.8761 311° West 456 525 43,000  Level Miami Center
Sun 11:46:05 AM 23.1608 -71.9861 307° West 456 525 43,000  Level Miami Center
Sun 11:47:05 AM 23.2394 -72.0914 309° West 456 525 43,000  Level Miami Center
Sun 11:48:05 AM 23.3158 -72.1972 308° West 456 525 43,000  Level Miami Center
Sun 11:49:05 AM 23.3942 -72.3028 309° West 456 525 43,000  Level Miami Center
Sun 11:50:05 AM 23.4725 -72.4089 309° West 456 525 43,000  Level Miami Center
Sun 11:51:05 AM 23.5511 -72.5192 308° West 456 525 43,000  Level Miami Center
Sun 11:52:05 AM 23.6294 -72.6278 308° West 456 525 43,000  Level Miami Center
Sun 11:53:05 AM 23.7075 -72.7339 309° West 456 525 43,000  Level Miami Center
Sun 11:54:05 AM 23.7836 -72.8447 307° West 461 531 43,000  Level Miami Center
Sun 11:55:05 AM 23.8556 -72.9606 304° West 461 531 43,000  Level Miami Center
Sun 11:56:05 AM 23.9314 -73.0672 308° West 456 525 43,000  Level Miami Center
Sun 11:57:05 AM 24.0094 -73.1764 308° West 456 525 43,000  Level Miami Center
Sun 11:58:05 AM 24.0853 -73.2833 308° West 450 518 43,000  Level Miami Center
Sun 11:59:05 AM 24.1608 -73.3928 307° West 450 518 43,000  Level Miami Center
Sun 12:00:05 PM 24.2364 -73.4978 308° West 450 518 43,000  Level Miami Center
Sun 12:01:05 PM 24.3161 -73.6050 309° West 450 518 43,000  Level Miami Center
Sun 12:02:05 PM 24.3914 -73.7103 308° West 450 518 43,000  Level Miami Center
Sun 12:03:05 PM 24.4689 -73.8225 307° West 450 518 43,000  Level Miami Center
Sun 12:04:05 PM 24.5464 -73.9325 308° West 450 518 43,000  Level Miami Center
Sun 12:05:05 PM 24.6239 -74.0403 308° West 450 518 43,000  Level Miami Center
Sun 12:06:05 PM 24.6989 -74.1483 307° West 450 518 43,000  Level Miami Center
Sun 12:07:05 PM 24.7783 -74.2611 308° West 455 524 43,000  Level Miami Center
Sun 12:08:05 PM 24.8533 -74.3694 307° West 455 524 43,000  Level Miami Center
Sun 12:09:05 PM 24.9283 -74.4800 307° West 455 524 43,000  Level Miami Center
Sun 12:10:05 PM 25.0094 -74.5956 308° West 462 532 43,000  Level Miami Center
Sun 12:11:05 PM 25.0842 -74.7019 308° West 462 532 43,000  Level Miami Center
Sun 12:12:05 PM 25.1611 -74.8131 307° West 457 526 43,000  Level Miami Center
Sun 12:13:05 PM 25.2378 -74.9244 307° West 457 526 43,000  Level Miami Center
Sun 12:14:05 PM 25.3122 -75.0333 307° West 457 526 43,000  Level Miami Center
Sun 12:15:05 PM 25.3867 -75.1450 306° West 457 526 43,000  Level Miami Center
Sun 12:16:05 PM 25.4611 -75.2544 307° West 452 520 43,000  Level Miami Center
Sun 12:17:05 PM 25.5375 -75.3617 308° West 452 520 43,000  Level Miami Center
Sun 12:18:05 PM 25.6139 -75.4692 308° West 452 520 43,000  Level Miami Center
Sun 12:19:05 PM 25.6858 -75.5789 306° West 452 520 43,000  Level Miami Center
Sun 12:20:05 PM 25.7619 -75.6911 307° West 452 520 43,000  Level Miami Center
Sun 12:21:05 PM 25.8403 -75.8011 308° West 452 520 43,000  Level Miami Center
Sun 12:22:05 PM 25.9078 -75.9069 305° West 446 513 43,000  Level Miami Center
Sun 12:23:05 PM 25.9900 -76.0289 307° West 446 513 43,000  Level Miami Center
Sun 12:24:05 PM 26.0681 -76.1417 308° West 446 513 43,000  Level Miami Center
Sun 12:25:05 PM 26.1417 -76.2544 306° West 451 519 43,000  Level Miami Center
Sun 12:26:05 PM 26.2150 -76.3653 306° West 456 525 43,000  Level Miami Center
Sun 12:27:05 PM 26.2886 -76.4739 307° West 450 518 43,000  Level Miami Center
Sun 12:28:05 PM 26.3642 -76.5872 307° West 450 518 43,000  Level Miami Center
Sun 12:29:05 PM 26.4353 -76.6964 306° West 451 519 43,000  Level Miami Center
Sun 12:30:05 PM 26.5106 -76.8144 305° West 451 519 43,000  Level Miami Center
Sun 12:31:05 PM 26.5858 -76.9236 308° West 451 519 43,000  Level Miami Center
Sun 12:32:05 PM 26.6608 -77.0378 306° West 450 518 43,000  Level Miami Center
Sun 12:33:05 PM 26.7339 -77.1517 306° West 456 525 43,000  Level Miami Center
Sun 12:34:05 PM 26.8067 -77.2614 307° West 450 518 43,000  Level Miami Center
Sun 12:35:05 PM 26.8817 -77.3758 306° West 450 518 43,000  Level Miami Center
Sun 12:36:05 PM 26.9397 -77.4647 306° West 457 526 43,000  Level Miami Center
Sun 12:37:05 PM 27.0186 -77.5839 307° West 450 518 43,000  Level Miami Center
Sun 12:38:05 PM 27.0869 -77.6917 305° West 441 507 43,000  Level Miami Center
Sun 12:39:05 PM 27.1550 -77.8206 301° West 452 520 43,000 250 Level Miami Center
Sun 12:40:05 PM 27.2231 -77.9403 303° West 452 520 43,500 550 Climbing Miami Center
Sun 12:41:05 PM 27.2933 -78.0603 303° West 460 529 44,100 600 Climbing Miami Center
Sun 12:42:05 PM 27.3675 -78.1778 305° West 455 524 44,700 450 Climbing Miami Center
Sun 12:43:05 PM 27.4331 -78.2911 303° West 441 507 45,000 150 Climbing Miami Center
Sun 12:44:05 PM 27.4925 -78.4089 300° West 435 501 45,000  Level Miami Center
Sun 12:45:05 PM 27.5392 -78.5361 292° West 430 495 45,000  Level Miami Center
Sun 12:46:05 PM 27.5856 -78.6608 293° West 430 495 45,000  Level Miami Center
Sun 12:47:05 PM 27.6364 -78.7858 295° West 440 506 45,000  Level Miami Center
Sun 12:48:05 PM 27.6825 -78.9156 292° West 445 512 45,000  Level Miami Center
Sun 12:49:05 PM 27.7308 -79.0456 293° West 445 512 45,000  Level Miami Center
Sun 12:50:05 PM 27.7728 -79.1614 292° West 445 512 45,000  Level Miami Center
Sun 12:51:05 PM 27.8186 -79.2867 292° West 445 512 45,000 -550 Level Miami Center
Sun 12:52:05 PM 27.8728 -79.4289 293° West 440 506 43,900 -1,300 Descending Miami Center
Sun 12:53:05 PM 27.9161 -79.5614 290° West 440 506 42,400 -1,500 Descending Miami Center
Sun 12:54:05 PM 27.9639 -79.6919 293° West 440 506 40,900 -1,500 Descending Miami Center
Sun 12:55:05 PM 28.0111 -79.8225 292° West 445 512 39,400 -1,500 Descending Miami Center
Sun 12:56:05 PM 28.0689 -79.9533 297° West 458 527 37,900 -1,450 Descending Miami Center
Sun 12:57:05 PM 28.1372 -80.0778 302° West 470 541 36,500 -1,450 Descending Miami Center
Sun 12:58:05 PM 28.2097 -80.2000 304° West 470 541 35,000 -1,500 Descending Miami Center
Sun 12:59:05 PM 28.2525 -80.3261 291° West 470 541 33,500 -1,450 Descending Miami Center
Sun 01:00:05 PM 28.3203 -80.4578 300° West 475 547 32,100 -1,600 Descending Miami Center
Sun 01:01:05 PM 28.3458 -80.5978 282° West 470 541 30,300 -2,050 Descending Miami Center
Sun 01:02:05 PM 28.2658 -80.7083 231° Southwest 421 484 28,000 -2,400 Descending Miami Center
Sun 01:03:05 PM 28.2747 -80.8406 274° West 411 473 25,500 -1,974 Descending Miami Center
Sun 01:04:37 PM 28.4192 -80.9667 322° Northwest 379 436 23,000 -993 Descending Jacksonville Center
Sun 01:05:36 PM 28.5353 -81.0447 329° Northwest 402 463 23,000  Level Jacksonville Center
Sun 01:06:36 PM 28.5953 -81.1547 302° West 417 480 23,000 -500 Level Jacksonville Center
Sun 01:07:36 PM 28.5928 -81.2825 269° West 383 441 22,000 -1,200 Descending Jacksonville Center
Sun 01:08:36 PM 28.6711 -81.3783 313° West 390 449 20,600 -1,350 Descending Jacksonville Center
Sun 01:09:36 PM 28.7858 -81.3811 359° North 352 405 19,300 -1,350 Descending Jacksonville Center
Sun 01:10:36 PM 28.8986 -81.3772 North 364 419 17,900 -1,200 Descending Jacksonville Center
Sun 01:11:36 PM 29.0133 -81.3731 North 393 452 16,900 -500 Descending Jacksonville Center
Sun 01:12:36 PM 29.1239 -81.3714 North 398 458 16,900 -250 Level Jacksonville Center
Sun 01:13:36 PM 29.2239 -81.3625 North 398 458 16,400 -750 Descending Jacksonville Center
Sun 01:14:12 PM 29.2992 -81.3614 North 398 458 15,700 -1,165 Descending Jacksonville Center
Sun 01:15:19 PM 29.4181 -81.3572 North 386 444 14,400 -1,525 Descending Jacksonville Center
Sun 01:16:14 PM 29.5139 -81.3508 North 379 436 12,600 -1,979 Descending Jacksonville Center
Sun 01:16:56 PM 29.5808 -81.3497 North 314 361 11,200 -2,122 Descending Jacksonville Center
Sun 01:17:36 PM 29.6267 -81.3467 North 341 392 9,700 -2,614 Descending Jacksonville Center
Sun 01:18:37 PM 29.7100 -81.3431 North 308 354 6,800 -2,700 Descending Jacksonville Center
Sun 01:19:36 PM 29.7875 -81.3467 358° North 288 331 4,300 -2,017 Descending Jacksonville Center
Sun 01:20:36 PM 29.8564 -81.3647 347° North 268 308 2,800 -1,200 Descending Jacksonville Center
Sun 01:21:36 PM 29.9172 -81.3781 349° North 240 276 1,900 -700 Descending Jacksonville Center
Sun 01:22:36 PM 29.9592 -81.4061 330° Northwest 201 231 1,400 -500 Descending Jacksonville Center
Sun 01:23:36 PM 29.9989 -81.3936 15° North 176 203 900 -500 Descending Jacksonville Center
Sun 01:25:00 PM 29.9592 -81.3397 128° Southeast  Level Estimated
Sun 01:32:00 PM 29.9592 -81.3397 128° Southeast  Level Estimated

Login

Don't have an account? Register now (free) for customized features, flight alerts, and more!